Pagrindinis puslapis
METAR-TAF:

METAR-TAF

Oro uostai :

Damaskas, Sirija

platuma: 33-25N, ilguma: 036-31E, Aukštis: 608 m

Dabartinis oras

Ataskaita buvo paskelbta 43 minutes, ne 01:00 UTC
Vėjas 20 kt iš Pietvakarių
Temperatūra 7°C
Drėgmė 81%
Slėgis 1015 hPa
Matomumas 10 km arba daugiau
nėra debesų žemiau 1500 m ir nėra kamuolinių lietaus debesų

METAR: OSDI 190100Z 23020KT CAVOK 07/04 Q1015

Laikas: 03:43 (01:43 UTC)

Prognozė

Ataskaita buvo paskelbta 3 valandos ir 43 minutes, ne 22:00 UTC
Prognozė galioja nuo 19 metu 00 UTC su 20 metu 06 UTC
Vėjas 6 kt iš Pietų/Pietvakarių
Mažai debesys ne aukštis 3000 ft
Išsisklaidę debesys ne aukštis 10000 ft
Tikimybė 40% :
Laikinai
nuo 19 metu 06 UTC su 19 metu 18 UTC
Vėjas 15 kt iš Vakarų/Pietvakarių su gūsio iki 25 kt
Mažai debesys ne aukštis 2500 ft, Liūtiniai kamuoliniai debesys.
Išsisklaidę debesys ne aukštis 3000 ft
Apsiniaukę ne aukštis 9000 ft

TAF: OSDI 182200Z 1900/2006 21006KT FEW030 SCT100 PROB40 TEMPO 1906/1918 25015G25KT 6000SHRA FEW025CB SCT030 OVC090

Orai ataskaitas ir orų prognozės (METAR, TAF).

turimą stotys yra geltonos ir raudonos taškus žemėlapyje.

Perkelti pele per norėdami pamatyti stoties vardą.

Tada spustelėkite, norėdami matyti oro stebėjimo ir prognozės.

Norėdami pakeisti žemėlapį: spustelėkite ant žalios mygtukų su juodo kryžiaus žemyn,; žalią mygtuką su brūkšneliu, jei norite nutolinti; arba žalių rodyklių gretimoms žemėlapius.


METAR-TAF: